sensor_id;sensor_type;location;lat;lon;timestamp;temperature;humidity
42833;DHT22;28479;51.478;5.692;2022-08-03T00:00:00;20.90;99.90
42833;DHT22;28479;51.478;5.692;2022-08-03T00:02:26;20.80;99.90
42833;DHT22;28479;51.478;5.692;2022-08-03T00:04:52;20.80;99.90
42833;DHT22;28479;51.478;5.692;2022-08-03T00:07:18;20.70;99.90
42833;DHT22;28479;51.478;5.692;2022-08-03T00:09:44;20.70;99.90
42833;DHT22;28479;51.478;5.692;2022-08-03T00:12:10;20.60;99.90
42833;DHT22;28479;51.478;5.692;2022-08-03T00:14:36;20.60;99.90
42833;DHT22;28479;51.478;5.692;2022-08-03T00:17:01;20.50;99.90
42833;DHT22;28479;51.478;5.692;2022-08-03T00:19:27;20.50;99.90
42833;DHT22;28479;51.478;5.692;2022-08-03T00:21:53;20.50;99.90
42833;DHT22;28479;51.478;5.692;2022-08-03T00:24:19;20.50;99.90
42833;DHT22;28479;51.478;5.692;2022-08-03T00:26:45;20.40;99.90
42833;DHT22;28479;51.478;5.692;2022-08-03T00:29:10;20.40;99.90
42833;DHT22;28479;51.478;5.692;2022-08-03T00:31:37;20.40;99.90
42833;DHT22;28479;51.478;5.692;2022-08-03T00:34:02;20.40;99.90
42833;DHT22;28479;51.478;5.692;2022-08-03T00:36:28;20.30;99.90
42833;DHT22;28479;51.478;5.692;2022-08-03T00:38:57;20.20;99.90
42833;DHT22;28479;51.478;5.692;2022-08-03T00:41:23;20.20;99.90
42833;DHT22;28479;51.478;5.692;2022-08-03T00:43:49;20.20;99.90
42833;DHT22;28479;51.478;5.692;2022-08-03T00:46:15;20.20;99.90
42833;DHT22;28479;51.478;5.692;2022-08-03T00:48:40;20.10;99.90
42833;DHT22;28479;51.478;5.692;2022-08-03T00:51:06;20.10;99.90
42833;DHT22;28479;51.478;5.692;2022-08-03T00:53:33;20.10;99.90
42833;DHT22;28479;51.478;5.692;2022-08-03T00:55:59;20.00;99.90
42833;DHT22;28479;51.478;5.692;2022-08-03T00:58:25;19.90;99.90
42833;DHT22;28479;51.478;5.692;2022-08-03T01:00:52;19.90;99.90
42833;DHT22;28479;51.478;5.692;2022-08-03T01:03:18;19.90;99.90
42833;DHT22;28479;51.478;5.692;2022-08-03T01:08:16;19.80;99.90
42833;DHT22;28479;51.478;5.692;2022-08-03T01:11:00;19.90;99.90
42833;DHT22;28479;51.478;5.692;2022-08-03T01:16:31;19.70;99.90
42833;DHT22;28479;51.478;5.692;2022-08-03T01:22:13;19.70;99.90
42833;DHT22;28479;51.478;5.692;2022-08-03T01:27:21;19.60;99.90
42833;DHT22;28479;51.478;5.692;2022-08-03T01:35:25;19.60;99.90
42833;DHT22;28479;51.478;5.692;2022-08-03T01:38:03;19.60;99.90
42833;DHT22;28479;51.478;5.692;2022-08-03T01:40:30;19.60;99.90
42833;DHT22;28479;51.478;5.692;2022-08-03T01:43:01;19.50;99.90
42833;DHT22;28479;51.478;5.692;2022-08-03T01:45:28;19.50;99.90
42833;DHT22;28479;51.478;5.692;2022-08-03T01:47:58;19.40;99.90
42833;DHT22;28479;51.478;5.692;2022-08-03T01:50:28;19.40;99.90
42833;DHT22;28479;51.478;5.692;2022-08-03T01:52:55;19.30;99.90
42833;DHT22;28479;51.478;5.692;2022-08-03T01:55:25;19.40;99.90
42833;DHT22;28479;51.478;5.692;2022-08-03T01:57:55;19.30;99.90
42833;DHT22;28479;51.478;5.692;2022-08-03T02:00:25;19.30;99.90
42833;DHT22;28479;51.478;5.692;2022-08-03T02:02:53;19.30;99.90
42833;DHT22;28479;51.478;5.692;2022-08-03T02:05:20;19.30;99.90
42833;DHT22;28479;51.478;5.692;2022-08-03T02:07:47;19.20;99.90
42833;DHT22;28479;51.478;5.692;2022-08-03T02:10:15;19.20;99.90
42833;DHT22;28479;51.478;5.692;2022-08-03T02:12:44;19.20;99.90
42833;DHT22;28479;51.478;5.692;2022-08-03T02:15:11;19.20;99.90
42833;DHT22;28479;51.478;5.692;2022-08-03T02:17:39;19.10;99.90
42833;DHT22;28479;51.478;5.692;2022-08-03T02:20:08;19.10;99.90
42833;DHT22;28479;51.478;5.692;2022-08-03T02:22:39;19.00;99.90
42833;DHT22;28479;51.478;5.692;2022-08-03T02:25:08;19.00;99.90
42833;DHT22;28479;51.478;5.692;2022-08-03T02:27:35;19.10;99.90
42833;DHT22;28479;51.478;5.692;2022-08-03T02:30:07;19.10;99.90
42833;DHT22;28479;51.478;5.692;2022-08-03T02:32:36;19.10;99.90
42833;DHT22;28479;51.478;5.692;2022-08-03T02:35:05;19.10;99.90
42833;DHT22;28479;51.478;5.692;2022-08-03T02:37:37;19.10;99.90
42833;DHT22;28479;51.478;5.692;2022-08-03T02:40:07;19.10;99.90
42833;DHT22;28479;51.478;5.692;2022-08-03T02:42:35;19.00;99.90
42833;DHT22;28479;51.478;5.692;2022-08-03T02:45:05;19.00;99.90
42833;DHT22;28479;51.478;5.692;2022-08-03T02:47:34;19.00;99.90
42833;DHT22;28479;51.478;5.692;2022-08-03T02:50:01;19.00;99.90
42833;DHT22;28479;51.478;5.692;2022-08-03T02:52:29;19.00;99.90
42833;DHT22;28479;51.478;5.692;2022-08-03T02:54:59;19.00;99.90
42833;DHT22;28479;51.478;5.692;2022-08-03T02:57:27;19.10;99.90
42833;DHT22;28479;51.478;5.692;2022-08-03T02:59:53;19.10;99.90
42833;DHT22;28479;51.478;5.692;2022-08-03T03:02:20;19.10;99.90
42833;DHT22;28479;51.478;5.692;2022-08-03T03:04:47;19.10;99.90
42833;DHT22;28479;51.478;5.692;2022-08-03T03:07:15;19.10;99.90
42833;DHT22;28479;51.478;5.692;2022-08-03T03:09:42;19.00;99.90
42833;DHT22;28479;51.478;5.692;2022-08-03T03:12:09;19.10;99.90
42833;DHT22;28479;51.478;5.692;2022-08-03T03:14:36;19.10;99.90
42833;DHT22;28479;51.478;5.692;2022-08-03T03:17:02;19.10;99.90
42833;DHT22;28479;51.478;5.692;2022-08-03T03:19:30;19.00;99.90
42833;DHT22;28479;51.478;5.692;2022-08-03T03:21:59;19.00;99.90
42833;DHT22;28479;51.478;5.692;2022-08-03T03:24:26;19.00;99.90
42833;DHT22;28479;51.478;5.692;2022-08-03T03:26:53;19.00;99.90
42833;DHT22;28479;51.478;5.692;2022-08-03T03:29:19;19.00;99.90
42833;DHT22;28479;51.478;5.692;2022-08-03T03:31:46;19.00;99.90
42833;DHT22;28479;51.478;5.692;2022-08-03T03:34:12;18.90;99.90
42833;DHT22;28479;51.478;5.692;2022-08-03T03:36:38;18.90;99.90
42833;DHT22;28479;51.478;5.692;2022-08-03T03:39:04;19.00;99.90
42833;DHT22;28479;51.478;5.692;2022-08-03T03:41:29;18.90;99.90
42833;DHT22;28479;51.478;5.692;2022-08-03T03:43:55;18.90;99.90
42833;DHT22;28479;51.478;5.692;2022-08-03T03:46:21;18.90;99.90
42833;DHT22;28479;51.478;5.692;2022-08-03T03:48:47;18.90;99.90
42833;DHT22;28479;51.478;5.692;2022-08-03T03:51:13;18.90;99.90
42833;DHT22;28479;51.478;5.692;2022-08-03T03:53:39;18.90;99.90
42833;DHT22;28479;51.478;5.692;2022-08-03T03:56:05;18.90;99.90
42833;DHT22;28479;51.478;5.692;2022-08-03T03:58:31;18.90;99.90
42833;DHT22;28479;51.478;5.692;2022-08-03T04:00:57;18.90;99.90
42833;DHT22;28479;51.478;5.692;2022-08-03T04:03:26;19.00;99.90
42833;DHT22;28479;51.478;5.692;2022-08-03T04:05:51;19.00;99.90
42833;DHT22;28479;51.478;5.692;2022-08-03T04:08:36;19.00;99.90
42833;DHT22;28479;51.478;5.692;2022-08-03T04:11:21;19.00;99.90
42833;DHT22;28479;51.478;5.692;2022-08-03T04:16:37;19.00;99.90
42833;DHT22;28479;51.478;5.692;2022-08-03T04:19:26;19.00;99.90
42833;DHT22;28479;51.478;5.692;2022-08-03T04:21:59;19.00;99.90
42833;DHT22;28479;51.478;5.692;2022-08-03T04:24:40;19.00;99.90
42833;DHT22;28479;51.478;5.692;2022-08-03T04:27:08;19.00;99.90
42833;DHT22;28479;51.478;5.692;2022-08-03T04:29:36;19.00;99.90
42833;DHT22;28479;51.478;5.692;2022-08-03T04:32:04;19.00;99.90
42833;DHT22;28479;51.478;5.692;2022-08-03T04:34:31;19.00;99.90
42833;DHT22;28479;51.478;5.692;2022-08-03T04:36:59;19.00;99.90
42833;DHT22;28479;51.478;5.692;2022-08-03T04:39:27;19.00;99.90
42833;DHT22;28479;51.478;5.692;2022-08-03T04:42:02;19.10;99.90
42833;DHT22;28479;51.478;5.692;2022-08-03T04:44:30;19.10;99.90
42833;DHT22;28479;51.478;5.692;2022-08-03T04:46:59;19.10;99.90
42833;DHT22;28479;51.478;5.692;2022-08-03T04:49:25;19.10;99.90
42833;DHT22;28479;51.478;5.692;2022-08-03T04:51:51;19.20;99.90
42833;DHT22;28479;51.478;5.692;2022-08-03T04:54:17;19.20;99.90
42833;DHT22;28479;51.478;5.692;2022-08-03T04:56:43;19.20;99.90
42833;DHT22;28479;51.478;5.692;2022-08-03T04:59:09;19.20;99.90
42833;DHT22;28479;51.478;5.692;2022-08-03T05:01:35;19.30;99.90
42833;DHT22;28479;51.478;5.692;2022-08-03T05:04:01;19.30;99.90
42833;DHT22;28479;51.478;5.692;2022-08-03T05:06:27;19.40;99.90
42833;DHT22;28479;51.478;5.692;2022-08-03T05:08:53;19.40;99.90
42833;DHT22;28479;51.478;5.692;2022-08-03T05:11:18;19.50;99.90
42833;DHT22;28479;51.478;5.692;2022-08-03T05:13:44;19.50;99.90
42833;DHT22;28479;51.478;5.692;2022-08-03T05:16:11;19.60;99.90
42833;DHT22;28479;51.478;5.692;2022-08-03T05:18:38;19.70;99.90
42833;DHT22;28479;51.478;5.692;2022-08-03T05:21:04;19.80;99.90
42833;DHT22;28479;51.478;5.692;2022-08-03T05:23:29;19.80;99.90
42833;DHT22;28479;51.478;5.692;2022-08-03T05:25:55;19.80;99.90
42833;DHT22;28479;51.478;5.692;2022-08-03T05:28:21;19.80;99.90
42833;DHT22;28479;51.478;5.692;2022-08-03T05:30:47;19.90;99.90
42833;DHT22;28479;51.478;5.692;2022-08-03T05:33:13;19.90;99.90
42833;DHT22;28479;51.478;5.692;2022-08-03T05:35:39;19.90;99.90
42833;DHT22;28479;51.478;5.692;2022-08-03T05:38:05;19.90;99.90
42833;DHT22;28479;51.478;5.692;2022-08-03T05:40:31;20.00;99.90
42833;DHT22;28479;51.478;5.692;2022-08-03T05:42:57;20.00;99.90
42833;DHT22;28479;51.478;5.692;2022-08-03T05:45:23;20.00;99.90
42833;DHT22;28479;51.478;5.692;2022-08-03T05:47:49;20.00;99.90
42833;DHT22;28479;51.478;5.692;2022-08-03T05:50:18;20.10;99.90
42833;DHT22;28479;51.478;5.692;2022-08-03T05:52:44;20.10;99.90
42833;DHT22;28479;51.478;5.692;2022-08-03T05:55:10;20.10;99.90
42833;DHT22;28479;51.478;5.692;2022-08-03T05:57:36;20.20;99.90
42833;DHT22;28479;51.478;5.692;2022-08-03T06:00:11;20.20;99.90
42833;DHT22;28479;51.478;5.692;2022-08-03T06:02:37;20.30;99.90
42833;DHT22;28479;51.478;5.692;2022-08-03T06:05:02;20.30;99.90
42833;DHT22;28479;51.478;5.692;2022-08-03T06:07:28;20.30;99.90
42833;DHT22;28479;51.478;5.692;2022-08-03T06:09:54;20.30;99.90
42833;DHT22;28479;51.478;5.692;2022-08-03T06:12:24;20.40;99.90
42833;DHT22;28479;51.478;5.692;2022-08-03T06:14:50;20.40;99.90
42833;DHT22;28479;51.478;5.692;2022-08-03T06:17:15;20.50;99.90
42833;DHT22;28479;51.478;5.692;2022-08-03T06:19:42;20.60;99.90
42833;DHT22;28479;51.478;5.692;2022-08-03T06:22:08;20.60;99.90
42833;DHT22;28479;51.478;5.692;2022-08-03T06:24:33;20.70;99.90
42833;DHT22;28479;51.478;5.692;2022-08-03T06:26:59;20.70;99.90
42833;DHT22;28479;51.478;5.692;2022-08-03T06:29:25;20.80;99.90
42833;DHT22;28479;51.478;5.692;2022-08-03T06:31:50;20.90;99.90
42833;DHT22;28479;51.478;5.692;2022-08-03T06:34:16;21.00;99.90
42833;DHT22;28479;51.478;5.692;2022-08-03T06:36:42;21.00;99.90
42833;DHT22;28479;51.478;5.692;2022-08-03T06:39:07;21.10;99.90
42833;DHT22;28479;51.478;5.692;2022-08-03T06:41:34;21.20;99.90
42833;DHT22;28479;51.478;5.692;2022-08-03T06:44:00;21.30;99.90
42833;DHT22;28479;51.478;5.692;2022-08-03T06:46:26;21.30;99.90
42833;DHT22;28479;51.478;5.692;2022-08-03T06:48:51;21.40;99.90
42833;DHT22;28479;51.478;5.692;2022-08-03T06:51:17;21.50;99.90
42833;DHT22;28479;51.478;5.692;2022-08-03T06:53:43;21.50;99.90
42833;DHT22;28479;51.478;5.692;2022-08-03T06:56:08;21.60;99.90
42833;DHT22;28479;51.478;5.692;2022-08-03T06:58:34;21.60;99.90
42833;DHT22;28479;51.478;5.692;2022-08-03T07:01:00;21.70;99.90
42833;DHT22;28479;51.478;5.692;2022-08-03T07:03:26;21.80;99.90
42833;DHT22;28479;51.478;5.692;2022-08-03T07:05:51;21.90;99.90
42833;DHT22;28479;51.478;5.692;2022-08-03T07:08:17;22.00;99.90
42833;DHT22;28479;51.478;5.692;2022-08-03T07:10:44;22.10;99.90
42833;DHT22;28479;51.478;5.692;2022-08-03T07:13:10;22.30;99.90
42833;DHT22;28479;51.478;5.692;2022-08-03T07:15:36;22.40;99.90
42833;DHT22;28479;51.478;5.692;2022-08-03T07:18:01;22.50;99.90
42833;DHT22;28479;51.478;5.692;2022-08-03T07:20:27;22.60;99.90
42833;DHT22;28479;51.478;5.692;2022-08-03T07:22:53;22.70;99.90
42833;DHT22;28479;51.478;5.692;2022-08-03T07:25:19;22.70;99.90
42833;DHT22;28479;51.478;5.692;2022-08-03T07:27:46;22.70;99.90
42833;DHT22;28479;51.478;5.692;2022-08-03T07:30:13;22.70;99.90
42833;DHT22;28479;51.478;5.692;2022-08-03T07:32:39;22.70;99.90
42833;DHT22;28479;51.478;5.692;2022-08-03T07:35:05;22.80;99.90
42833;DHT22;28479;51.478;5.692;2022-08-03T07:37:31;22.90;99.90
42833;DHT22;28479;51.478;5.692;2022-08-03T07:39:58;22.90;99.90
42833;DHT22;28479;51.478;5.692;2022-08-03T07:42:28;22.90;99.90
42833;DHT22;28479;51.478;5.692;2022-08-03T07:44:57;23.00;99.90
42833;DHT22;28479;51.478;5.692;2022-08-03T07:47:28;23.00;99.90
42833;DHT22;28479;51.478;5.692;2022-08-03T07:49:54;23.00;99.90
42833;DHT22;28479;51.478;5.692;2022-08-03T07:52:25;23.10;99.90
42833;DHT22;28479;51.478;5.692;2022-08-03T07:55:10;23.10;99.90
42833;DHT22;28479;51.478;5.692;2022-08-03T07:57:36;23.10;99.90
42833;DHT22;28479;51.478;5.692;2022-08-03T08:00:04;23.20;99.90
42833;DHT22;28479;51.478;5.692;2022-08-03T08:02:30;23.30;99.90
42833;DHT22;28479;51.478;5.692;2022-08-03T08:04:55;23.40;99.90
42833;DHT22;28479;51.478;5.692;2022-08-03T08:07:21;23.60;99.90
42833;DHT22;28479;51.478;5.692;2022-08-03T08:09:47;23.70;99.90
42833;DHT22;28479;51.478;5.692;2022-08-03T08:12:12;23.70;99.90
42833;DHT22;28479;51.478;5.692;2022-08-03T08:14:38;23.80;99.90
42833;DHT22;28479;51.478;5.692;2022-08-03T08:17:04;23.90;99.90
42833;DHT22;28479;51.478;5.692;2022-08-03T08:19:29;24.00;99.90
42833;DHT22;28479;51.478;5.692;2022-08-03T08:21:55;24.00;99.90
42833;DHT22;28479;51.478;5.692;2022-08-03T08:24:20;23.90;99.90
42833;DHT22;28479;51.478;5.692;2022-08-03T08:26:46;24.00;99.90
42833;DHT22;28479;51.478;5.692;2022-08-03T08:29:12;24.00;99.90
42833;DHT22;28479;51.478;5.692;2022-08-03T08:31:37;23.90;99.90
42833;DHT22;28479;51.478;5.692;2022-08-03T08:34:03;23.90;99.90
42833;DHT22;28479;51.478;5.692;2022-08-03T08:36:33;23.90;99.90
42833;DHT22;28479;51.478;5.692;2022-08-03T08:38:59;23.90;99.90
42833;DHT22;28479;51.478;5.692;2022-08-03T08:41:26;24.00;99.90
42833;DHT22;28479;51.478;5.692;2022-08-03T08:43:53;24.00;99.90
42833;DHT22;28479;51.478;5.692;2022-08-03T08:46:19;24.10;99.90
42833;DHT22;28479;51.478;5.692;2022-08-03T08:48:45;24.10;99.90
42833;DHT22;28479;51.478;5.692;2022-08-03T08:51:13;24.30;99.90
42833;DHT22;28479;51.478;5.692;2022-08-03T08:53:42;24.30;99.90
42833;DHT22;28479;51.478;5.692;2022-08-03T08:56:12;24.40;99.90
42833;DHT22;28479;51.478;5.692;2022-08-03T08:58:50;24.50;99.90
42833;DHT22;28479;51.478;5.692;2022-08-03T09:01:19;24.50;99.90
42833;DHT22;28479;51.478;5.692;2022-08-03T09:03:46;24.60;99.90
42833;DHT22;28479;51.478;5.692;2022-08-03T09:06:12;24.60;99.90
42833;DHT22;28479;51.478;5.692;2022-08-03T09:08:39;24.70;99.90
42833;DHT22;28479;51.478;5.692;2022-08-03T09:11:05;24.90;99.90
42833;DHT22;28479;51.478;5.692;2022-08-03T09:13:33;24.90;99.90
42833;DHT22;28479;51.478;5.692;2022-08-03T09:16:19;24.90;99.90
42833;DHT22;28479;51.478;5.692;2022-08-03T09:18:51;25.00;99.90
42833;DHT22;28479;51.478;5.692;2022-08-03T09:21:27;25.00;99.90
42833;DHT22;28479;51.478;5.692;2022-08-03T09:23:59;25.10;99.90
42833;DHT22;28479;51.478;5.692;2022-08-03T09:26:27;25.20;99.90
42833;DHT22;28479;51.478;5.692;2022-08-03T09:29:07;25.40;99.90
42833;DHT22;28479;51.478;5.692;2022-08-03T09:31:37;25.50;99.90
42833;DHT22;28479;51.478;5.692;2022-08-03T09:34:05;25.50;99.90
42833;DHT22;28479;51.478;5.692;2022-08-03T09:39:05;25.60;99.90
42833;DHT22;28479;51.478;5.692;2022-08-03T09:41:32;25.80;99.90
42833;DHT22;28479;51.478;5.692;2022-08-03T09:43:59;25.90;99.90
42833;DHT22;28479;51.478;5.692;2022-08-03T09:46:24;26.00;99.90
42833;DHT22;28479;51.478;5.692;2022-08-03T09:48:50;26.10;99.90
42833;DHT22;28479;51.478;5.692;2022-08-03T09:51:16;26.00;99.90
42833;DHT22;28479;51.478;5.692;2022-08-03T09:53:44;26.00;99.90
42833;DHT22;28479;51.478;5.692;2022-08-03T09:56:10;26.30;99.90
42833;DHT22;28479;51.478;5.692;2022-08-03T09:58:45;26.30;99.90
42833;DHT22;28479;51.478;5.692;2022-08-03T10:01:11;26.20;99.90
42833;DHT22;28479;51.478;5.692;2022-08-03T10:03:39;26.40;99.90
42833;DHT22;28479;51.478;5.692;2022-08-03T10:06:15;26.60;99.90
42833;DHT22;28479;51.478;5.692;2022-08-03T10:08:41;26.80;99.90
42833;DHT22;28479;51.478;5.692;2022-08-03T10:11:07;26.90;99.90
42833;DHT22;28479;51.478;5.692;2022-08-03T10:13:32;27.00;99.90
42833;DHT22;28479;51.478;5.692;2022-08-03T10:15:58;27.00;99.90
42833;DHT22;28479;51.478;5.692;2022-08-03T10:18:24;27.10;99.90
42833;DHT22;28479;51.478;5.692;2022-08-03T10:21:00;27.00;99.90
42833;DHT22;28479;51.478;5.692;2022-08-03T10:23:27;27.00;99.90
42833;DHT22;28479;51.478;5.692;2022-08-03T10:25:57;27.00;99.90
42833;DHT22;28479;51.478;5.692;2022-08-03T10:28:39;27.10;99.90
42833;DHT22;28479;51.478;5.692;2022-08-03T10:31:09;27.20;99.90
42833;DHT22;28479;51.478;5.692;2022-08-03T10:33:42;27.40;99.90
42833;DHT22;28479;51.478;5.692;2022-08-03T10:36:09;27.40;99.90
42833;DHT22;28479;51.478;5.692;2022-08-03T10:38:51;27.50;99.90
42833;DHT22;28479;51.478;5.692;2022-08-03T10:41:23;27.50;99.90
42833;DHT22;28479;51.478;5.692;2022-08-03T10:44:02;27.70;99.90
42833;DHT22;28479;51.478;5.692;2022-08-03T10:46:28;27.90;99.90
42833;DHT22;28479;51.478;5.692;2022-08-03T10:48:56;28.20;99.90
42833;DHT22;28479;51.478;5.692;2022-08-03T10:51:26;28.30;99.90
42833;DHT22;28479;51.478;5.692;2022-08-03T10:53:59;28.40;99.90
42833;DHT22;28479;51.478;5.692;2022-08-03T10:59:19;28.50;99.90
42833;DHT22;28479;51.478;5.692;2022-08-03T11:02:04;28.40;99.90
42833;DHT22;28479;51.478;5.692;2022-08-03T11:04:33;28.50;99.60
42833;DHT22;28479;51.478;5.692;2022-08-03T11:07:19;28.50;99.40
42833;DHT22;28479;51.478;5.692;2022-08-03T11:09:54;28.80;99.70
42833;DHT22;28479;51.478;5.692;2022-08-03T11:12:22;28.60;98.60
42833;DHT22;28479;51.478;5.692;2022-08-03T11:14:52;28.60;98.90
42833;DHT22;28479;51.478;5.692;2022-08-03T11:17:19;28.70;98.80
42833;DHT22;28479;51.478;5.692;2022-08-03T11:19:49;28.90;98.60
42833;DHT22;28479;51.478;5.692;2022-08-03T11:22:15;29.00;98.00
42833;DHT22;28479;51.478;5.692;2022-08-03T11:30:10;29.00;97.00
42833;DHT22;28479;51.478;5.692;2022-08-03T11:35:16;29.30;97.10
42833;DHT22;28479;51.478;5.692;2022-08-03T11:40:39;29.60;96.50
42833;DHT22;28479;51.478;5.692;2022-08-03T11:45:57;29.90;96.20
42833;DHT22;28479;51.478;5.692;2022-08-03T11:48:27;29.90;96.40
42833;DHT22;28479;51.478;5.692;2022-08-03T11:50:53;29.90;96.50
42833;DHT22;28479;51.478;5.692;2022-08-03T11:53:19;29.80;96.50
42833;DHT22;28479;51.478;5.692;2022-08-03T11:55:46;29.80;96.50
42833;DHT22;28479;51.478;5.692;2022-08-03T11:58:21;30.00;96.80
42833;DHT22;28479;51.478;5.692;2022-08-03T12:00:48;30.10;96.40
42833;DHT22;28479;51.478;5.692;2022-08-03T12:03:18;30.00;95.90
42833;DHT22;28479;51.478;5.692;2022-08-03T12:08:13;29.60;96.30
42833;DHT22;28479;51.478;5.692;2022-08-03T12:10:45;29.80;96.30
42833;DHT22;28479;51.478;5.692;2022-08-03T12:13:11;29.80;96.00
42833;DHT22;28479;51.478;5.692;2022-08-03T12:15:37;29.80;96.20
42833;DHT22;28479;51.478;5.692;2022-08-03T12:18:11;29.90;96.30
42833;DHT22;28479;51.478;5.692;2022-08-03T12:20:37;30.00;96.70
42833;DHT22;28479;51.478;5.692;2022-08-03T12:23:06;30.00;96.40
42833;DHT22;28479;51.478;5.692;2022-08-03T12:25:33;30.10;96.10
42833;DHT22;28479;51.478;5.692;2022-08-03T12:28:07;30.10;96.20
42833;DHT22;28479;51.478;5.692;2022-08-03T12:30:34;30.40;96.50
42833;DHT22;28479;51.478;5.692;2022-08-03T12:35:42;30.50;95.50
42833;DHT22;28479;51.478;5.692;2022-08-03T12:38:08;30.50;95.90
42833;DHT22;28479;51.478;5.692;2022-08-03T12:40:34;30.50;95.60
42833;DHT22;28479;51.478;5.692;2022-08-03T12:43:09;30.60;95.50
42833;DHT22;28479;51.478;5.692;2022-08-03T12:45:35;30.70;95.50
42833;DHT22;28479;51.478;5.692;2022-08-03T12:48:01;30.80;95.00
42833;DHT22;28479;51.478;5.692;2022-08-03T12:50:33;30.90;95.10
42833;DHT22;28479;51.478;5.692;2022-08-03T12:53:00;31.10;95.10
42833;DHT22;28479;51.478;5.692;2022-08-03T12:55:27;31.20;94.70
42833;DHT22;28479;51.478;5.692;2022-08-03T12:57:59;31.10;94.70
42833;DHT22;28479;51.478;5.692;2022-08-03T13:00:24;31.30;94.50
42833;DHT22;28479;51.478;5.692;2022-08-03T13:03:06;31.20;94.30
42833;DHT22;28479;51.478;5.692;2022-08-03T13:05:44;31.10;94.10
42833;DHT22;28479;51.478;5.692;2022-08-03T13:08:18;31.30;94.00
42833;DHT22;28479;51.478;5.692;2022-08-03T13:10:44;31.50;93.80
42833;DHT22;28479;51.478;5.692;2022-08-03T13:13:10;31.60;93.70
42833;DHT22;28479;51.478;5.692;2022-08-03T13:15:36;31.30;93.70
42833;DHT22;28479;51.478;5.692;2022-08-03T13:18:02;31.20;94.10
42833;DHT22;28479;51.478;5.692;2022-08-03T13:20:27;30.90;94.00
42833;DHT22;28479;51.478;5.692;2022-08-03T13:22:54;30.70;94.20
42833;DHT22;28479;51.478;5.692;2022-08-03T13:25:21;30.70;94.40
42833;DHT22;28479;51.478;5.692;2022-08-03T13:27:47;31.00;94.50
42833;DHT22;28479;51.478;5.692;2022-08-03T13:30:13;31.20;94.00
42833;DHT22;28479;51.478;5.692;2022-08-03T13:32:39;31.10;94.00
42833;DHT22;28479;51.478;5.692;2022-08-03T13:35:06;31.30;94.10
42833;DHT22;28479;51.478;5.692;2022-08-03T13:37:32;31.80;93.90
42833;DHT22;28479;51.478;5.692;2022-08-03T13:39:59;32.30;93.20
42833;DHT22;28479;51.478;5.692;2022-08-03T13:42:25;32.80;93.00
42833;DHT22;28479;51.478;5.692;2022-08-03T13:44:50;33.00;91.90
42833;DHT22;28479;51.478;5.692;2022-08-03T13:47:16;33.00;91.80
42833;DHT22;28479;51.478;5.692;2022-08-03T13:49:42;33.20;91.30
42833;DHT22;28479;51.478;5.692;2022-08-03T13:52:07;33.40;91.90
42833;DHT22;28479;51.478;5.692;2022-08-03T13:54:33;33.30;91.50
42833;DHT22;28479;51.478;5.692;2022-08-03T13:56:59;33.40;91.30
42833;DHT22;28479;51.478;5.692;2022-08-03T13:59:24;33.60;91.10
42833;DHT22;28479;51.478;5.692;2022-08-03T14:01:52;33.60;91.10
42833;DHT22;28479;51.478;5.692;2022-08-03T14:04:18;33.40;90.70
42833;DHT22;28479;51.478;5.692;2022-08-03T14:06:44;32.70;90.80
42833;DHT22;28479;51.478;5.692;2022-08-03T14:09:14;32.30;91.20
42833;DHT22;28479;51.478;5.692;2022-08-03T14:11:40;32.20;91.40
42833;DHT22;28479;51.478;5.692;2022-08-03T14:14:06;32.30;91.50
42833;DHT22;28479;51.478;5.692;2022-08-03T14:16:35;32.70;91.50
42833;DHT22;28479;51.478;5.692;2022-08-03T14:19:00;32.90;91.70
42833;DHT22;28479;51.478;5.692;2022-08-03T14:21:26;33.30;91.00
42833;DHT22;28479;51.478;5.692;2022-08-03T14:23:52;33.30;90.70
42833;DHT22;28479;51.478;5.692;2022-08-03T14:26:17;33.70;90.60
42833;DHT22;28479;51.478;5.692;2022-08-03T14:28:45;33.80;90.40
42833;DHT22;28479;51.478;5.692;2022-08-03T14:31:11;34.00;90.20
42833;DHT22;28479;51.478;5.692;2022-08-03T14:33:37;34.20;89.60
42833;DHT22;28479;51.478;5.692;2022-08-03T14:36:03;34.50;90.20
42833;DHT22;28479;51.478;5.692;2022-08-03T14:38:28;34.60;89.50
42833;DHT22;28479;51.478;5.692;2022-08-03T14:40:54;34.40;88.30
42833;DHT22;28479;51.478;5.692;2022-08-03T14:43:20;34.50;88.80
42833;DHT22;28479;51.478;5.692;2022-08-03T14:45:47;34.50;87.40
42833;DHT22;28479;51.478;5.692;2022-08-03T14:48:16;34.80;88.10
42833;DHT22;28479;51.478;5.692;2022-08-03T14:50:42;34.60;88.00
42833;DHT22;28479;51.478;5.692;2022-08-03T14:53:08;34.60;89.00
42833;DHT22;28479;51.478;5.692;2022-08-03T14:55:33;35.00;89.20
42833;DHT22;28479;51.478;5.692;2022-08-03T14:57:59;35.50;88.60
42833;DHT22;28479;51.478;5.692;2022-08-03T15:00:34;35.20;85.80
42833;DHT22;28479;51.478;5.692;2022-08-03T15:03:00;35.00;86.70
42833;DHT22;28479;51.478;5.692;2022-08-03T15:05:26;34.60;85.20
42833;DHT22;28479;51.478;5.692;2022-08-03T15:07:51;34.40;85.70
42833;DHT22;28479;51.478;5.692;2022-08-03T15:10:17;34.80;86.60
42833;DHT22;28479;51.478;5.692;2022-08-03T15:12:43;35.40;86.20
42833;DHT22;28479;51.478;5.692;2022-08-03T15:15:09;35.70;84.80
42833;DHT22;28479;51.478;5.692;2022-08-03T15:17:35;35.70;83.80
42833;DHT22;28479;51.478;5.692;2022-08-03T15:20:00;35.80;83.50
42833;DHT22;28479;51.478;5.692;2022-08-03T15:22:26;36.10;82.20
42833;DHT22;28479;51.478;5.692;2022-08-03T15:24:52;35.90;83.90
42833;DHT22;28479;51.478;5.692;2022-08-03T15:27:18;36.00;85.10
42833;DHT22;28479;51.478;5.692;2022-08-03T15:29:43;36.30;85.00
42833;DHT22;28479;51.478;5.692;2022-08-03T15:32:09;36.10;83.30
42833;DHT22;28479;51.478;5.692;2022-08-03T15:34:34;36.10;83.60
42833;DHT22;28479;51.478;5.692;2022-08-03T15:37:00;36.30;82.80
42833;DHT22;28479;51.478;5.692;2022-08-03T15:39:26;36.50;82.00
42833;DHT22;28479;51.478;5.692;2022-08-03T15:41:51;36.50;81.20
42833;DHT22;28479;51.478;5.692;2022-08-03T15:44:20;36.40;82.40
42833;DHT22;28479;51.478;5.692;2022-08-03T15:46:46;36.20;83.30
42833;DHT22;28479;51.478;5.692;2022-08-03T15:49:15;36.10;82.70
42833;DHT22;28479;51.478;5.692;2022-08-03T15:51:41;36.00;81.00
42833;DHT22;28479;51.478;5.692;2022-08-03T15:54:07;35.70;80.20
42833;DHT22;28479;51.478;5.692;2022-08-03T15:56:32;35.60;82.20
42833;DHT22;28479;51.478;5.692;2022-08-03T15:59:06;35.70;81.00
42833;DHT22;28479;51.478;5.692;2022-08-03T16:01:48;35.70;80.50
42833;DHT22;28479;51.478;5.692;2022-08-03T16:04:15;35.60;79.90
42833;DHT22;28479;51.478;5.692;2022-08-03T16:06:40;35.30;80.00
42833;DHT22;28479;51.478;5.692;2022-08-03T16:09:07;35.30;80.50
42833;DHT22;28479;51.478;5.692;2022-08-03T16:11:33;35.60;81.10
42833;DHT22;28479;51.478;5.692;2022-08-03T16:13:59;36.00;80.20
42833;DHT22;28479;51.478;5.692;2022-08-03T16:16:25;36.30;80.20